Tropical Cyclones
[Index]
Main Index Home Page Stock Weather Photos Extreme Storms Discussion Storm News and Storm Chasing Reports Tropical Cyclones / Hurricanes / Typhoons Weather Data and Links Wild Fires / Bushfires Weather Observation Techniques Weather Picture Catalogue Tornado Pictures and Reports Stock Video Footage and DVDs for sale
Season 1984-1985 Tropical Cyclone CELESTINA Track Map
Season 1984-1985 Summaries: [BoM-AU] [JTWC-AU] [JTWC-SIO] [JTWC-SPAC] [JTWC-SH]
<<- Previous TC | JTWC 1984-1985 Season | Next TC ->>

click for intensity scale information  Lat/long Grid: Show Hide

 Date Labels: Show Hide

Joint Typhoon Warning Centre Cyclone Data

Name: CELESTINA

10 Jan 1985 06:00 UTC to 21 Jan 1985 18:00 UTC

    date/time    lat    long     hPa   cat  kts
1985-01-10 06   10.8    65.7                  20          
1985-01-10 12   11.0    65.1                  20          
1985-01-10 18   11.3    64.4                  25          
1985-01-11 00   11.6    63.7                  25          
1985-01-11 06   11.9    62.9                  30          
1985-01-11 12   12.2    62.0                  30          
1985-01-11 18   12.6    61.2                  35          
1985-01-12 00   13.1    60.4            1     40          
1985-01-12 06   13.7    59.7            1     45          
1985-01-12 12   14.3    59.0            1     50          
1985-01-12 18   14.9    58.3            2     55          
1985-01-13 00   15.5    57.6            2     60          
1985-01-13 06   16.1    56.9            2     60          
1985-01-13 12   16.7    56.2            2     60          
1985-01-13 18   17.3    55.7            2     65          
1985-01-14 00   17.8    55.3            2     60          
1985-01-14 06   18.2    54.9            2     55          
1985-01-14 12   18.6    54.5            1     50          
1985-01-14 18   19.1    54.2            1     50          
1985-01-15 00   19.4    53.9            1     50          
1985-01-15 06   19.7    53.7            1     50          
1985-01-15 12   20.1    53.5            2     55          
1985-01-15 18   20.6    53.4            2     55          
1985-01-16 00   21.1    53.5            2     55          
1985-01-16 06   21.6    53.7            2     55          
1985-01-16 12   21.9    54.1            2     55          
1985-01-16 18   22.1    54.5            2     55          
1985-01-17 00   22.3    55.1            2     55          
1985-01-17 06   22.3    55.7            2     55          
1985-01-17 12   22.0    56.2            2     55          
1985-01-17 18   21.7    56.2            2     55          
1985-01-18 00   21.4    55.8            1     50          
1985-01-18 06   21.2    55.3            1     40          
1985-01-18 12   21.1    54.9                  35          
1985-01-18 18   21.2    54.5                  35          
1985-01-19 00   21.3    54.2                  35          
1985-01-19 06   21.5    53.9                  35          
1985-01-19 12   21.7    53.7                  35          
1985-01-19 18   21.9    53.4            1     40          
1985-01-20 00   22.4    53.2            1     40          
1985-01-20 06   23.0    52.9            1     40          
1985-01-20 12   23.6    52.8                  35          
1985-01-20 18   24.3    52.8                  35          
1985-01-21 00   25.0    52.8                  35          
1985-01-21 06   25.8    52.9                  35          
1985-01-21 12   26.5    53.1                  35          
1985-01-21 18   27.3    53.3                  35          
Winds are 1-min average.

Tropical cyclone tracks developed by Michael Bath using data from the Joint Typhoon Warning Centre Best Tracks and Google Maps.


[Australian Severe Weather index] [Copyright Notice] [Email Contacts] [Search This Site] [Privacy Policy]
Document: tropical_cyclone_celestina.htm Updated: 18 September 2016